createdAt,value
2023-04-20T00:00:15.916Z,4.78
2023-04-20T00:05:18.692Z,4.82
2023-04-20T00:10:22.802Z,4.10
2023-04-20T00:15:25.592Z,3.58
2023-04-20T00:20:28.915Z,5.00
2023-04-20T00:25:33.249Z,3.83
2023-04-20T00:30:36.195Z,5.10
2023-04-20T00:35:40.906Z,3.30
2023-04-20T00:40:48.807Z,2.25
2023-04-20T00:45:52.102Z,8.73
2023-04-20T00:50:54.941Z,5.43
2023-04-20T00:55:59.806Z,4.88
2023-04-20T01:01:02.819Z,5.22
2023-04-20T01:06:06.649Z,3.72
2023-04-20T01:11:10.801Z,6.05
2023-04-20T01:16:13.802Z,5.75
2023-04-20T01:21:17.993Z,4.10
2023-04-20T01:26:24.781Z,6.00
2023-04-20T01:31:27.625Z,4.30
2023-04-20T01:36:31.080Z,6.47
2023-04-20T01:41:35.414Z,3.95
2023-04-20T01:46:39.181Z,8.48
2023-04-20T01:51:43.159Z,13.27
2023-04-20T01:56:47.263Z,5.03
2023-04-20T02:01:51.733Z,4.93
2023-04-20T02:06:54.517Z,7.20
2023-04-20T02:11:58.672Z,6.65
2023-04-20T02:17:01.993Z,7.88
2023-04-20T02:22:04.864Z,8.07
2023-04-20T02:27:08.948Z,5.32
2023-04-20T02:32:11.766Z,5.47
2023-04-20T02:37:14.794Z,5.57
2023-04-20T02:42:20.066Z,7.28
2023-04-20T02:47:24.440Z,6.82
2023-04-20T02:52:29.608Z,9.05
2023-04-20T02:57:36.394Z,7.22
2023-04-20T03:02:39.988Z,5.13
2023-04-20T03:07:43.573Z,7.03
2023-04-20T03:12:49.494Z,8.98
2023-04-20T03:18:10.728Z,8.18
2023-04-20T03:23:14.011Z,9.55
2023-04-20T03:28:18.711Z,9.60
2023-04-20T03:33:21.988Z,7.93
2023-04-20T03:38:24.887Z,8.55
2023-04-20T03:43:29.833Z,6.95
2023-04-20T03:48:33.746Z,9.55
2023-04-20T03:53:38.968Z,10.02
2023-04-20T03:58:46.000Z,9.88
2023-04-20T04:03:53.035Z,16.38
2023-04-20T04:08:56.118Z,10.23
2023-04-20T04:14:00.985Z,11.27
2023-04-20T04:19:05.289Z,11.40
2023-04-20T04:24:09.369Z,10.18
2023-04-20T04:29:20.179Z,11.27
2023-04-20T04:34:24.004Z,8.40
2023-04-20T04:39:29.131Z,14.07
2023-04-20T04:44:42.706Z,11.02
2023-04-20T04:49:49.811Z,10.60
2023-04-20T04:54:52.685Z,10.43
2023-04-20T04:59:56.856Z,10.88
2023-04-20T05:04:59.578Z,8.77
2023-04-20T05:10:02.333Z,11.45
2023-04-20T05:15:07.422Z,9.07
2023-04-20T05:20:11.947Z,13.63
2023-04-20T05:25:14.789Z,14.25
2023-04-20T05:30:21.883Z,11.10
2023-04-20T05:35:24.963Z,13.57
2023-04-20T05:40:27.806Z,13.35
2023-04-20T05:45:33.088Z,11.52
2023-04-20T05:50:35.970Z,13.32
2023-04-20T05:55:38.994Z,13.45
2023-04-20T06:00:43.128Z,13.98
2023-04-20T06:05:45.974Z,14.02
2023-04-20T06:10:48.749Z,15.75
2023-04-20T06:15:54.114Z,14.18
2023-04-20T06:20:57.118Z,14.63
2023-04-20T06:25:59.847Z,17.63
2023-04-20T06:31:04.708Z,15.40
2023-04-20T06:36:08.042Z,15.18
2023-04-20T06:41:10.767Z,13.18
2023-04-20T06:46:14.912Z,14.57
2023-04-20T06:51:17.719Z,19.02
2023-04-20T06:56:20.518Z,14.45
2023-04-20T07:01:24.724Z,13.35
2023-04-20T07:06:28.474Z,14.52
2023-04-20T07:11:31.289Z,20.27
2023-04-20T07:16:35.549Z,14.43
2023-04-20T07:21:38.544Z,14.75
2023-04-20T07:26:41.459Z,15.68
2023-04-20T07:31:45.771Z,16.75
2023-04-20T07:36:48.722Z,18.23
2023-04-20T07:41:51.881Z,16.25
2023-04-20T07:46:57.574Z,18.83
2023-04-20T07:52:15.047Z,16.95
2023-04-20T07:57:19.568Z,17.70
2023-04-20T08:02:24.430Z,16.73
2023-04-20T08:07:27.307Z,20.80
2023-04-20T08:12:30.187Z,16.60
2023-04-20T08:17:34.536Z,17.63
2023-04-20T08:22:37.371Z,19.55
2023-04-20T08:27:40.109Z,17.98
2023-04-20T08:32:44.674Z,22.13
2023-04-20T08:37:47.544Z,17.95
2023-04-20T08:42:50.280Z,20.67
2023-04-20T08:47:55.390Z,21.92
2023-04-20T08:52:58.704Z,23.58
2023-04-20T08:58:01.548Z,20.30
2023-04-20T09:03:05.795Z,21.58
2023-04-20T09:08:10.936Z,18.08
2023-04-20T09:13:22.689Z,16.00
2023-04-20T09:18:26.824Z,14.15
2023-04-20T09:23:29.575Z,15.55
2023-04-20T09:28:38.889Z,12.75
2023-04-20T09:33:43.081Z,14.38
2023-04-20T09:38:46.011Z,17.92
2023-04-20T09:43:49.053Z,13.38
2023-04-20T09:48:54.045Z,16.00
2023-04-20T09:53:58.273Z,15.50
2023-04-20T09:59:02.803Z,13.15
2023-04-20T10:04:11.046Z,13.80
2023-04-20T10:09:24.413Z,13.55
2023-04-20T10:14:27.310Z,12.25
2023-04-20T10:19:41.673Z,11.70
2023-04-20T10:24:44.462Z,13.48
2023-04-20T10:29:47.742Z,11.60
2023-04-20T10:35:02.228Z,17.08
2023-04-20T10:40:07.639Z,16.42
2023-04-20T10:45:11.840Z,11.15
2023-04-20T10:50:18.159Z,12.77
2023-04-20T10:55:21.889Z,9.82
2023-04-20T11:00:27.930Z,11.02
2023-04-20T11:05:32.205Z,12.52
2023-04-20T11:10:44.308Z,12.23
2023-04-20T11:15:47.332Z,9.57
2023-04-20T11:20:56.355Z,12.00
2023-04-20T11:25:59.223Z,10.20
2023-04-20T11:31:02.307Z,14.15
2023-04-20T11:36:06.957Z,14.70
2023-04-20T11:41:09.698Z,13.80
2023-04-20T11:46:17.260Z,13.30
2023-04-20T11:51:21.900Z,11.93
2023-04-20T11:56:24.777Z,10.65
2023-04-20T12:01:27.632Z,13.50
2023-04-20T12:06:32.686Z,13.55
2023-04-20T12:11:35.528Z,15.45
2023-04-20T12:16:38.268Z,17.70
2023-04-20T12:21:42.507Z,12.43
2023-04-20T12:26:46.003Z,11.25
2023-04-20T12:31:48.846Z,14.65
2023-04-20T12:36:53.153Z,14.38
2023-04-20T12:41:56.940Z,16.75
2023-04-20T12:46:59.858Z,16.23
2023-04-20T12:52:04.938Z,15.80
2023-04-20T12:57:08.927Z,16.83
2023-04-20T13:02:12.487Z,13.73
2023-04-20T13:07:16.656Z,14.52
2023-04-20T13:12:19.912Z,19.75
2023-04-20T13:17:22.682Z,15.73
2023-04-20T13:22:26.809Z,18.58
2023-04-20T13:27:29.534Z,18.05
2023-04-20T13:32:33.065Z,13.32
2023-04-20T13:37:39.100Z,14.80
2023-04-20T13:42:42.210Z,16.80
2023-04-20T13:47:45.285Z,15.70
2023-04-20T13:52:51.860Z,18.42
2023-04-20T13:57:54.634Z,20.42
2023-04-20T14:02:57.545Z,16.65
2023-04-20T14:08:04.397Z,18.98
2023-04-20T14:13:10.567Z,19.20
2023-04-20T14:18:13.619Z,21.02
2023-04-20T14:23:17.871Z,18.48
2023-04-20T14:28:27.766Z,19.48
2023-04-20T14:33:31.335Z,20.30
2023-04-20T14:38:41.521Z,18.13
2023-04-20T14:43:44.782Z,17.97
2023-04-20T14:48:49.058Z,18.45
2023-04-20T14:53:53.398Z,20.02
2023-04-20T14:58:57.180Z,16.17
2023-04-20T15:04:00.171Z,19.05
2023-04-20T15:09:04.812Z,23.10
2023-04-20T15:14:07.863Z,38.75
2023-04-20T15:19:10.733Z,20.90
2023-04-20T15:24:15.043Z,21.60
2023-04-20T15:29:18.098Z,20.38
2023-04-20T15:34:21.347Z,16.73
2023-04-20T15:39:26.072Z,18.42
2023-04-20T15:44:29.516Z,18.77
2023-04-20T15:49:37.227Z,20.70
2023-04-20T15:54:41.395Z,21.83
2023-04-20T15:59:44.245Z,24.13
2023-04-20T16:04:47.653Z,19.67
2023-04-20T16:09:54.168Z,18.75
2023-04-20T16:14:57.317Z,16.58
2023-04-20T16:20:00.265Z,20.02
2023-04-20T16:25:06.055Z,16.42
2023-04-20T16:30:13.137Z,15.55
2023-04-20T16:35:16.029Z,20.05
2023-04-20T16:40:20.880Z,15.05
2023-04-20T16:45:23.761Z,15.57
2023-04-20T16:50:27.702Z,13.88
2023-04-20T16:55:32.920Z,13.88
2023-04-20T17:00:36.427Z,19.55
2023-04-20T17:05:41.927Z,20.42
2023-04-20T17:10:46.702Z,21.73
2023-04-20T17:15:49.888Z,19.42
2023-04-20T17:20:53.104Z,17.63
2023-04-20T17:25:57.234Z,18.02
2023-04-20T17:31:00.287Z,17.05
2023-04-20T17:36:03.174Z,16.20
2023-04-20T17:41:07.458Z,19.60
2023-04-20T17:46:10.436Z,18.25
2023-04-20T17:51:14.101Z,19.10
2023-04-20T17:56:18.707Z,19.40
2023-04-20T18:01:21.643Z,16.70
2023-04-20T18:06:25.989Z,18.20
2023-04-20T18:11:30.608Z,19.60
2023-04-20T18:16:33.882Z,19.60
2023-04-20T18:21:36.688Z,17.23
2023-04-20T18:26:40.978Z,17.75
2023-04-20T18:31:45.332Z,16.88
2023-04-20T18:36:48.329Z,17.58
2023-04-20T18:41:52.520Z,17.92
2023-04-20T18:46:55.355Z,19.58
2023-04-20T18:51:58.279Z,21.55
2023-04-20T18:57:02.832Z,18.42
2023-04-20T19:02:05.936Z,23.50
2023-04-20T19:07:08.840Z,18.52
2023-04-20T19:12:13.114Z,21.00
2023-04-20T19:17:15.989Z,19.65
2023-04-20T19:22:18.760Z,18.67
2023-04-20T19:27:23.036Z,17.23
2023-04-20T19:32:26.070Z,15.85
2023-04-20T19:37:29.508Z,19.95
2023-04-20T19:42:33.667Z,17.92
2023-04-20T19:47:37.210Z,17.38
2023-04-20T19:52:40.148Z,17.33
2023-04-20T19:57:44.295Z,17.17
2023-04-20T20:02:47.218Z,19.73
2023-04-20T20:07:52.311Z,14.98
2023-04-20T20:12:56.509Z,17.27
2023-04-20T20:17:59.888Z,16.38
2023-04-20T20:23:02.995Z,18.15
2023-04-20T20:28:07.120Z,16.80
2023-04-20T20:33:10.130Z,19.77
2023-04-20T20:38:13.077Z,20.50
2023-04-20T20:43:18.335Z,20.02
2023-04-20T20:48:21.551Z,19.90
2023-04-20T20:53:24.612Z,21.50
2023-04-20T20:58:28.975Z,22.73
2023-04-20T21:03:31.985Z,19.15
2023-04-20T21:08:35.193Z,21.73
2023-04-20T21:13:39.331Z,21.23
2023-04-20T21:18:42.139Z,21.08
2023-04-20T21:23:45.003Z,18.73
2023-04-20T21:28:49.164Z,18.88
2023-04-20T21:33:52.132Z,19.45
2023-04-20T21:38:55.000Z,24.33
2023-04-20T21:43:59.160Z,24.42
2023-04-20T21:49:02.474Z,18.48
2023-04-20T21:54:05.369Z,21.50
2023-04-20T21:59:09.552Z,18.88
2023-04-20T22:04:12.489Z,25.92
2023-04-20T22:09:17.871Z,22.88
2023-04-20T22:14:22.380Z,23.63
2023-04-20T22:19:25.118Z,21.75
2023-04-20T22:24:30.471Z,24.20
2023-04-20T22:29:34.595Z,22.67
2023-04-20T22:34:37.360Z,19.88
2023-04-20T22:39:40.149Z,18.75
2023-04-20T22:44:44.217Z,23.83
2023-04-20T22:49:48.962Z,20.92
2023-04-20T22:54:51.832Z,20.48
2023-04-20T22:59:56.048Z,21.40
2023-04-20T23:04:58.900Z,17.25
2023-04-20T23:10:03.920Z,25.30
2023-04-20T23:15:09.360Z,21.55
2023-04-20T23:20:14.178Z,22.05
2023-04-20T23:25:17.478Z,23.38
2023-04-20T23:30:26.520Z,22.80
2023-04-20T23:35:29.435Z,23.60
2023-04-20T23:40:34.451Z,23.08
2023-04-20T23:45:40.172Z,24.35
2023-04-20T23:50:45.060Z,20.70
2023-04-20T23:55:51.740Z,21.52
